createdAt,value
2023-01-07T00:01:11.531Z,8.00
2023-01-07T00:03:38.921Z,8.10
2023-01-07T00:06:08.816Z,8.00
2023-01-07T00:08:37.929Z,8.00
2023-01-07T00:11:06.548Z,8.00
2023-01-07T00:13:34.168Z,8.00
2023-01-07T00:16:03.254Z,8.00
2023-01-07T00:18:30.331Z,8.00
2023-01-07T00:21:01.512Z,8.00
2023-01-07T00:23:29.290Z,8.00
2023-01-07T00:26:08.105Z,7.90
2023-01-07T00:28:36.936Z,7.90
2023-01-07T00:31:12.146Z,7.90
2023-01-07T00:33:59.636Z,7.90
2023-01-07T00:36:29.816Z,7.90
2023-01-07T00:38:58.985Z,7.90
2023-01-07T00:41:26.319Z,7.90
2023-01-07T00:43:53.226Z,7.90
2023-01-07T00:46:19.987Z,7.90
2023-01-07T00:48:46.891Z,7.90
2023-01-07T00:51:15.364Z,7.80
2023-01-07T00:53:42.433Z,7.80
2023-01-07T00:56:14.669Z,7.80
2023-01-07T00:58:42.149Z,7.80
2023-01-07T01:01:10.854Z,7.80
2023-01-07T01:03:38.479Z,7.80
2023-01-07T01:06:14.215Z,7.70
2023-01-07T01:08:45.887Z,7.70
2023-01-07T01:11:15.615Z,7.80
2023-01-07T01:13:43.245Z,7.80
2023-01-07T01:16:15.492Z,7.70
2023-01-07T01:18:42.839Z,7.80
2023-01-07T01:21:12.401Z,7.80
2023-01-07T01:23:39.661Z,7.80
2023-01-07T01:26:08.914Z,7.80
2023-01-07T01:28:35.931Z,7.80
2023-01-07T01:31:04.080Z,7.80
2023-01-07T01:33:31.303Z,7.80
2023-01-07T01:35:57.966Z,7.70
2023-01-07T01:38:24.655Z,7.80
2023-01-07T01:40:51.403Z,7.80
2023-01-07T01:43:50.368Z,7.80
2023-01-07T01:46:37.743Z,7.70
2023-01-07T01:49:04.474Z,7.70
2023-01-07T01:51:34.890Z,7.70
2023-01-07T01:54:05.329Z,7.70
2023-01-07T01:56:38.631Z,7.70
2023-01-07T01:59:08.534Z,7.70
2023-01-07T02:01:37.001Z,7.70
2023-01-07T02:04:09.769Z,7.70
2023-01-07T02:06:44.090Z,7.70
2023-01-07T02:09:14.094Z,7.70
2023-01-07T02:11:56.168Z,7.80
2023-01-07T02:14:36.824Z,7.70
2023-01-07T02:17:07.867Z,7.60
2023-01-07T02:19:37.772Z,7.70
2023-01-07T02:22:35.548Z,7.70
2023-01-07T02:25:26.897Z,7.70
2023-01-07T02:28:10.285Z,7.70
2023-01-07T02:30:50.685Z,7.70
2023-01-07T02:33:51.270Z,7.70
2023-01-07T02:36:51.099Z,7.70
2023-01-07T02:39:29.818Z,7.70
2023-01-07T02:42:23.668Z,7.70
2023-01-07T02:45:08.060Z,7.60
2023-01-07T02:47:47.552Z,7.60
2023-01-07T02:50:14.487Z,7.60
2023-01-07T02:52:44.120Z,7.60
2023-01-07T02:55:17.646Z,7.60
2023-01-07T02:58:15.669Z,7.70
2023-01-07T03:01:16.847Z,7.70
2023-01-07T03:04:14.027Z,7.70
2023-01-07T03:07:15.441Z,7.60
2023-01-07T03:10:04.502Z,7.70
2023-01-07T03:12:42.030Z,7.60
2023-01-07T03:15:20.572Z,7.60
2023-01-07T03:18:01.611Z,7.70
2023-01-07T03:20:30.549Z,7.60
2023-01-07T03:22:58.248Z,7.60
2023-01-07T03:25:28.435Z,7.60
2023-01-07T03:27:57.660Z,7.60
2023-01-07T03:30:25.762Z,7.70
2023-01-07T03:33:02.238Z,7.70
2023-01-07T03:35:32.145Z,7.60
2023-01-07T03:38:02.108Z,7.60
2023-01-07T03:40:29.272Z,7.60
2023-01-07T03:42:55.959Z,7.60
2023-01-07T03:45:24.674Z,7.60
2023-01-07T03:47:54.202Z,7.60
2023-01-07T03:50:21.251Z,7.50
2023-01-07T03:52:48.727Z,7.60
2023-01-07T03:55:15.542Z,7.60
2023-01-07T03:57:42.843Z,7.60
2023-01-07T04:00:11.940Z,7.60
2023-01-07T04:02:38.699Z,7.50
2023-01-07T04:05:06.007Z,7.60
2023-01-07T04:07:32.780Z,7.60
2023-01-07T04:09:59.494Z,7.60
2023-01-07T04:12:26.186Z,7.50
2023-01-07T04:14:53.107Z,7.50
2023-01-07T04:17:24.017Z,7.60
2023-01-07T04:19:50.694Z,7.60
2023-01-07T04:22:17.405Z,7.50
2023-01-07T04:24:50.568Z,7.60
2023-01-07T04:27:17.918Z,7.60
2023-01-07T04:29:44.694Z,7.50
2023-01-07T04:32:11.493Z,7.50
2023-01-07T04:34:38.243Z,7.50
2023-01-07T04:37:04.965Z,7.50
2023-01-07T04:39:31.619Z,7.50
2023-01-07T04:41:58.320Z,7.50
2023-01-07T04:44:25.097Z,7.50
2023-01-07T04:46:51.883Z,7.50
2023-01-07T04:49:18.743Z,7.50
2023-01-07T04:51:45.535Z,7.40
2023-01-07T04:54:14.335Z,7.50
2023-01-07T04:56:41.831Z,7.40
2023-01-07T04:59:08.575Z,7.30
2023-01-07T05:01:35.409Z,7.40
2023-01-07T05:04:05.320Z,7.40
2023-01-07T05:06:34.743Z,7.40
2023-01-07T05:09:01.486Z,7.40
2023-01-07T05:11:28.823Z,7.40
2023-01-07T05:13:55.609Z,7.40
2023-01-07T05:16:22.436Z,7.40
2023-01-07T05:18:49.234Z,7.40
2023-01-07T05:21:15.982Z,7.40
2023-01-07T05:23:42.664Z,7.40
2023-01-07T05:26:09.451Z,7.40
2023-01-07T05:28:36.237Z,7.40
2023-01-07T05:31:03.050Z,7.40
2023-01-07T05:33:29.826Z,7.40
2023-01-07T05:35:56.755Z,7.40
2023-01-07T05:38:23.660Z,7.40
2023-01-07T05:40:51.852Z,7.40
2023-01-07T05:43:18.775Z,7.30
2023-01-07T05:45:46.298Z,7.40
2023-01-07T05:48:14.610Z,7.30
2023-01-07T05:50:42.194Z,7.30
2023-01-07T05:53:08.908Z,7.30
2023-01-07T05:55:38.457Z,7.30
2023-01-07T05:58:05.996Z,7.30
2023-01-07T06:00:33.524Z,7.30
2023-01-07T06:03:00.228Z,7.30
2023-01-07T06:05:26.992Z,7.30
2023-01-07T06:07:53.854Z,7.20
2023-01-07T06:10:20.799Z,7.30
2023-01-07T06:12:47.510Z,7.20
2023-01-07T06:15:14.488Z,7.30
2023-01-07T06:17:41.171Z,7.20
2023-01-07T06:20:09.313Z,7.30
2023-01-07T06:22:36.462Z,7.20
2023-01-07T06:25:04.272Z,7.20
2023-01-07T06:27:31.146Z,7.20
2023-01-07T06:29:57.951Z,7.20
2023-01-07T06:32:24.992Z,7.20
2023-01-07T06:34:51.733Z,7.10
2023-01-07T06:37:18.460Z,7.10
2023-01-07T06:39:45.199Z,7.20
2023-01-07T06:42:12.217Z,7.10
2023-01-07T06:44:39.001Z,7.10
2023-01-07T06:47:05.756Z,7.10
2023-01-07T06:49:32.449Z,7.10
2023-01-07T06:51:59.257Z,7.10
2023-01-07T06:54:25.966Z,7.10
2023-01-07T06:56:52.668Z,7.10
2023-01-07T06:59:19.320Z,7.10
2023-01-07T07:01:46.756Z,7.10
2023-01-07T07:04:13.738Z,7.00
2023-01-07T07:06:40.518Z,7.10
2023-01-07T07:09:07.341Z,7.10
2023-01-07T07:11:34.378Z,7.10
2023-01-07T07:14:01.389Z,7.10
2023-01-07T07:16:28.100Z,7.10
2023-01-07T07:18:54.827Z,7.10
2023-01-07T07:21:21.814Z,7.00
2023-01-07T07:23:48.626Z,7.00
2023-01-07T07:26:15.361Z,7.10
2023-01-07T07:28:43.042Z,7.00
2023-01-07T07:31:10.430Z,7.00
2023-01-07T07:33:37.522Z,7.00
2023-01-07T07:36:05.203Z,7.00
2023-01-07T07:38:31.995Z,7.10
2023-01-07T07:40:58.713Z,7.00
2023-01-07T07:43:25.522Z,7.00
2023-01-07T07:45:52.266Z,7.00
2023-01-07T07:48:18.999Z,7.00
2023-01-07T07:50:50.048Z,7.00
2023-01-07T07:53:16.767Z,7.00
2023-01-07T07:55:43.510Z,7.00
2023-01-07T07:58:10.281Z,7.10
2023-01-07T08:00:37.127Z,7.00
2023-01-07T08:03:04.106Z,7.00
2023-01-07T08:05:31.636Z,7.00
2023-01-07T08:07:58.659Z,7.00
2023-01-07T08:10:27.469Z,7.00
2023-01-07T08:12:54.223Z,7.00
2023-01-07T08:15:21.004Z,7.00
2023-01-07T08:17:47.783Z,7.10
2023-01-07T08:20:14.651Z,7.00
2023-01-07T08:22:41.589Z,7.10
2023-01-07T08:25:08.736Z,7.10
2023-01-07T08:27:35.455Z,7.10
2023-01-07T08:30:02.113Z,7.10
2023-01-07T08:32:29.184Z,7.10
2023-01-07T08:34:56.188Z,7.10
2023-01-07T08:37:22.909Z,7.10
2023-01-07T08:39:49.569Z,7.20
2023-01-07T08:42:16.256Z,7.20
2023-01-07T08:44:44.033Z,7.10
2023-01-07T08:47:10.753Z,7.20
2023-01-07T08:49:37.638Z,7.20
2023-01-07T08:52:04.563Z,7.20
2023-01-07T08:54:31.217Z,7.30
2023-01-07T08:56:58.061Z,7.30
2023-01-07T08:59:24.750Z,7.30
2023-01-07T09:01:51.672Z,7.30
2023-01-07T09:04:18.468Z,7.30
2023-01-07T09:06:45.186Z,7.40
2023-01-07T09:09:14.445Z,7.30
2023-01-07T09:11:41.077Z,7.40
2023-01-07T09:14:08.015Z,7.40
2023-01-07T09:16:34.716Z,7.50
2023-01-07T09:19:01.539Z,7.50
2023-01-07T09:21:28.217Z,7.50
2023-01-07T09:23:54.920Z,7.60
2023-01-07T09:26:21.645Z,7.60
2023-01-07T09:28:48.346Z,7.60
2023-01-07T09:31:15.100Z,7.70
2023-01-07T09:33:42.943Z,7.80
2023-01-07T09:36:09.785Z,7.80
2023-01-07T09:38:36.689Z,7.80
2023-01-07T09:41:03.411Z,7.80
2023-01-07T09:44:00.890Z,7.80
2023-01-07T09:46:29.285Z,7.80
2023-01-07T09:49:01.193Z,7.90
2023-01-07T09:51:37.183Z,8.10
2023-01-07T09:54:08.792Z,8.10
2023-01-07T09:56:37.274Z,8.10
2023-01-07T09:59:05.557Z,8.00
2023-01-07T10:01:50.941Z,8.20
2023-01-07T10:04:32.776Z,8.40
2023-01-07T10:07:18.179Z,8.70
2023-01-07T10:09:54.211Z,9.00
2023-01-07T10:12:30.022Z,9.30
2023-01-07T10:15:21.021Z,9.50
2023-01-07T10:17:59.791Z,9.60
2023-01-07T10:20:37.836Z,9.70
2023-01-07T10:23:13.124Z,9.70
2023-01-07T10:25:52.568Z,9.80
2023-01-07T10:28:28.637Z,9.90
2023-01-07T10:30:55.569Z,9.90
2023-01-07T10:33:29.683Z,10.00
2023-01-07T10:36:17.999Z,10.00
2023-01-07T10:38:54.745Z,10.10
2023-01-07T10:41:41.628Z,10.20
2023-01-07T10:44:26.914Z,10.30
2023-01-07T10:47:23.286Z,10.30
2023-01-07T10:50:14.482Z,10.40
2023-01-07T10:53:04.279Z,10.30
2023-01-07T10:55:36.924Z,10.50
2023-01-07T10:58:03.812Z,10.60
2023-01-07T11:00:30.915Z,10.60
2023-01-07T11:02:59.965Z,10.60
2023-01-07T11:05:37.148Z,10.70
2023-01-07T11:08:11.149Z,10.90
2023-01-07T11:10:38.247Z,11.00
2023-01-07T11:13:31.723Z,11.10
2023-01-07T11:16:08.204Z,11.00
2023-01-07T11:19:03.838Z,11.00
2023-01-07T11:21:44.029Z,11.10
2023-01-07T11:24:36.169Z,11.10
2023-01-07T11:27:16.530Z,11.20
2023-01-07T11:29:46.430Z,11.30
2023-01-07T11:32:26.164Z,11.30
2023-01-07T11:34:59.498Z,11.40
2023-01-07T11:37:41.309Z,11.40
2023-01-07T11:40:13.912Z,11.30
2023-01-07T11:43:00.452Z,11.20
2023-01-07T11:46:20.097Z,11.20
2023-01-07T11:49:02.877Z,11.30
2023-01-07T11:51:40.402Z,11.30
2023-01-07T11:54:25.268Z,11.10
2023-01-07T11:56:54.167Z,11.00
2023-01-07T11:59:28.764Z,11.20
2023-01-07T12:01:59.580Z,11.00
2023-01-07T12:04:35.714Z,10.90
2023-01-07T12:07:13.075Z,10.80
2023-01-07T12:09:41.733Z,10.70
2023-01-07T12:12:31.893Z,10.80
2023-01-07T12:15:27.045Z,10.80
2023-01-07T12:18:09.029Z,10.80
2023-01-07T12:21:02.818Z,10.70
2023-01-07T12:23:52.564Z,10.50
2023-01-07T12:26:26.979Z,10.50
2023-01-07T12:29:22.139Z,10.30
2023-01-07T12:32:23.588Z,10.30
2023-01-07T12:35:14.263Z,10.30
2023-01-07T12:37:48.409Z,10.30
2023-01-07T12:44:19.535Z,10.20
2023-01-07T12:47:32.377Z,10.20
2023-01-07T12:50:18.229Z,10.20
2023-01-07T12:52:50.025Z,10.10
2023-01-07T12:55:20.889Z,10.10
2023-01-07T12:58:14.886Z,10.10
2023-01-07T13:01:12.096Z,10.10
2023-01-07T13:03:57.049Z,10.10
2023-01-07T13:06:36.915Z,10.20
2023-01-07T13:09:09.329Z,10.20
2023-01-07T13:12:04.899Z,10.20
2023-01-07T13:14:45.784Z,10.20
2023-01-07T13:17:20.555Z,10.20
2023-01-07T13:19:47.400Z,10.30
2023-01-07T13:22:38.752Z,10.30
2023-01-07T13:25:34.692Z,10.30
2023-01-07T13:28:23.329Z,10.20
2023-01-07T13:31:20.943Z,10.30
2023-01-07T13:34:16.458Z,10.20
2023-01-07T13:37:06.424Z,10.20
2023-01-07T13:39:42.308Z,10.10
2023-01-07T13:42:15.302Z,10.10
2023-01-07T13:45:28.804Z,10.10
2023-01-07T13:47:59.148Z,10.10
2023-01-07T13:50:34.939Z,10.10
2023-01-07T13:53:26.108Z,10.10
2023-01-07T13:55:57.768Z,10.10
2023-01-07T13:58:47.465Z,10.10
2023-01-07T14:01:25.631Z,10.10
2023-01-07T14:04:04.211Z,10.10
2023-01-07T14:06:39.171Z,10.10
2023-01-07T14:09:11.022Z,10.10
2023-01-07T14:11:41.875Z,10.00
2023-01-07T14:14:27.283Z,10.00
2023-01-07T14:16:57.131Z,10.00
2023-01-07T14:19:50.247Z,10.00
2023-01-07T14:22:41.716Z,10.00
2023-01-07T14:25:44.920Z,10.00
2023-01-07T14:28:20.536Z,10.00
2023-01-07T14:30:49.856Z,9.90
2023-01-07T14:33:26.056Z,10.00
2023-01-07T14:36:06.440Z,9.90
2023-01-07T14:38:33.210Z,9.90
2023-01-07T14:41:02.815Z,9.90
2023-01-07T14:43:45.719Z,9.80
2023-01-07T14:46:25.063Z,9.80
2023-01-07T14:49:04.057Z,9.80
2023-01-07T14:51:54.860Z,9.70
2023-01-07T14:55:07.586Z,9.70
2023-01-07T14:57:43.852Z,9.70
2023-01-07T15:00:22.932Z,9.70
2023-01-07T15:03:11.865Z,9.60
2023-01-07T15:05:59.682Z,9.60
2023-01-07T15:08:50.980Z,9.60
2023-01-07T15:11:43.159Z,9.50
2023-01-07T15:15:00.569Z,9.50
2023-01-07T15:17:27.546Z,9.40
2023-01-07T15:19:55.091Z,9.40
2023-01-07T15:22:37.273Z,9.30
2023-01-07T15:25:19.483Z,9.20
2023-01-07T15:28:09.178Z,9.00
2023-01-07T15:30:49.765Z,8.90
2023-01-07T15:33:28.587Z,8.80
2023-01-07T15:35:57.380Z,8.60
2023-01-07T15:38:33.275Z,8.50
2023-01-07T15:41:00.387Z,8.50
2023-01-07T15:43:29.948Z,8.40
2023-01-07T15:46:07.811Z,8.30
2023-01-07T15:48:34.697Z,8.20
2023-01-07T15:51:01.571Z,8.10
2023-01-07T15:53:30.087Z,8.10
2023-01-07T15:56:05.253Z,8.00
2023-01-07T15:58:40.100Z,8.00
2023-01-07T16:01:12.135Z,7.80
2023-01-07T16:03:39.873Z,7.80
2023-01-07T16:06:26.356Z,7.70
2023-01-07T16:08:53.202Z,7.70
2023-01-07T16:11:28.467Z,7.80
2023-01-07T16:14:13.792Z,7.80
2023-01-07T16:16:40.573Z,7.80
2023-01-07T16:19:19.940Z,7.80
2023-01-07T16:21:52.752Z,7.90
2023-01-07T16:24:19.717Z,7.80
2023-01-07T16:26:51.295Z,7.70
2023-01-07T16:29:23.398Z,7.70
2023-01-07T16:31:50.478Z,7.60
2023-01-07T16:34:37.308Z,7.50
2023-01-07T16:37:07.369Z,7.30
2023-01-07T16:39:37.913Z,7.30
2023-01-07T16:42:20.107Z,7.20
2023-01-07T16:44:49.480Z,7.20
2023-01-07T16:47:17.860Z,7.00
2023-01-07T16:49:45.828Z,7.10
2023-01-07T16:52:19.532Z,7.00
2023-01-07T16:54:47.666Z,6.90
2023-01-07T16:57:15.132Z,6.90
2023-01-07T16:59:53.755Z,6.90
2023-01-07T17:02:40.680Z,6.90
2023-01-07T17:05:18.556Z,6.90
2023-01-07T17:07:49.887Z,6.90
2023-01-07T17:10:30.772Z,7.00
2023-01-07T17:13:27.045Z,7.00
2023-01-07T17:16:16.710Z,7.00
2023-01-07T17:18:43.661Z,6.90
2023-01-07T17:21:32.075Z,6.90
2023-01-07T17:23:58.989Z,6.90
2023-01-07T17:26:27.893Z,6.80
2023-01-07T17:29:00.348Z,6.70
2023-01-07T17:31:28.141Z,6.80
2023-01-07T17:33:55.589Z,6.70
2023-01-07T17:36:24.697Z,6.80
2023-01-07T17:38:52.143Z,6.70
2023-01-07T17:41:40.396Z,6.70
2023-01-07T17:44:11.575Z,6.60
2023-01-07T17:46:42.075Z,6.70
2023-01-07T17:49:11.134Z,6.70
2023-01-07T17:51:41.376Z,6.60
2023-01-07T17:54:12.143Z,6.50
2023-01-07T17:56:40.237Z,6.60
2023-01-07T17:59:13.835Z,6.50
2023-01-07T18:01:40.992Z,6.50
2023-01-07T18:04:07.919Z,6.50
2023-01-07T18:06:36.966Z,6.30
2023-01-07T18:09:05.014Z,6.20
2023-01-07T18:11:56.056Z,6.00
2023-01-07T18:14:23.004Z,5.90
2023-01-07T18:16:51.957Z,5.90
2023-01-07T18:19:19.423Z,5.80
2023-01-07T18:21:46.311Z,5.80
2023-01-07T18:24:18.301Z,5.70
2023-01-07T18:26:45.288Z,5.60
2023-01-07T18:29:12.784Z,5.50
2023-01-07T18:31:42.332Z,5.40
2023-01-07T18:34:13.991Z,5.40
2023-01-07T18:36:41.310Z,5.50
2023-01-07T18:39:11.305Z,5.30
2023-01-07T18:41:39.661Z,5.30
2023-01-07T18:44:06.798Z,5.20
2023-01-07T18:46:33.826Z,5.10
2023-01-07T18:49:00.697Z,5.10
2023-01-07T18:51:27.581Z,5.00
2023-01-07T18:53:54.396Z,4.90
2023-01-07T18:56:21.184Z,4.80
2023-01-07T18:58:52.299Z,4.90
2023-01-07T19:01:19.210Z,4.80
2023-01-07T19:03:46.569Z,4.90
2023-01-07T19:06:14.222Z,4.90
2023-01-07T19:08:41.465Z,4.80
2023-01-07T19:11:10.112Z,4.70
2023-01-07T19:13:37.699Z,4.60
2023-01-07T19:16:10.136Z,4.60
2023-01-07T19:18:37.179Z,4.50
2023-01-07T19:21:10.590Z,4.50
2023-01-07T19:23:37.427Z,4.40
2023-01-07T19:26:08.932Z,4.40
2023-01-07T19:28:36.346Z,4.30
2023-01-07T19:31:08.593Z,4.30
2023-01-07T19:33:36.173Z,4.10
2023-01-07T19:36:05.401Z,4.10
2023-01-07T19:38:32.465Z,4.20
2023-01-07T19:40:59.306Z,4.20
2023-01-07T19:43:26.026Z,4.20
2023-01-07T19:45:55.234Z,4.10
2023-01-07T19:48:22.907Z,4.00
2023-01-07T19:51:01.159Z,4.00
2023-01-07T19:53:30.088Z,4.10
2023-01-07T19:56:07.892Z,4.00
2023-01-07T19:58:35.067Z,3.90
2023-01-07T20:01:07.028Z,3.90
2023-01-07T20:03:38.175Z,3.90
2023-01-07T20:06:10.530Z,3.90
2023-01-07T20:08:38.100Z,3.90
2023-01-07T20:11:05.787Z,3.90
2023-01-07T20:13:34.337Z,3.90
2023-01-07T20:16:05.744Z,3.80
2023-01-07T20:18:37.738Z,3.70
2023-01-07T20:21:04.726Z,3.70
2023-01-07T20:23:31.864Z,3.60
2023-01-07T20:26:00.003Z,3.60
2023-01-07T20:28:26.753Z,3.60
2023-01-07T20:30:53.566Z,3.60
2023-01-07T20:33:20.304Z,3.60
2023-01-07T20:35:47.080Z,3.50
2023-01-07T20:38:14.386Z,3.60
2023-01-07T20:40:42.339Z,3.60
2023-01-07T20:43:10.041Z,3.50
2023-01-07T20:45:38.412Z,3.50
2023-01-07T20:48:05.412Z,3.50
2023-01-07T20:50:35.581Z,3.60
2023-01-07T20:53:02.494Z,3.50
2023-01-07T20:55:29.603Z,3.50
2023-01-07T20:57:56.406Z,3.40
2023-01-07T21:00:23.381Z,3.40
2023-01-07T21:02:53.299Z,3.50
2023-01-07T21:05:20.587Z,3.50
2023-01-07T21:07:48.414Z,3.50
2023-01-07T21:10:18.606Z,3.40
2023-01-07T21:12:46.404Z,3.50
2023-01-07T21:15:15.044Z,3.50
2023-01-07T21:17:42.512Z,3.40
2023-01-07T21:20:12.586Z,3.40
2023-01-07T21:22:39.468Z,3.40
2023-01-07T21:25:10.162Z,3.40
2023-01-07T21:27:38.367Z,3.40
2023-01-07T21:30:07.502Z,3.40
2023-01-07T21:32:35.227Z,3.40
2023-01-07T21:35:02.124Z,3.40
2023-01-07T21:37:29.413Z,3.30
2023-01-07T21:39:56.301Z,3.30
2023-01-07T21:42:23.062Z,3.20
2023-01-07T21:44:49.750Z,3.20
2023-01-07T21:47:16.669Z,3.20
2023-01-07T21:49:43.719Z,3.30
2023-01-07T21:52:10.533Z,3.20
2023-01-07T21:54:37.431Z,3.20
2023-01-07T21:57:04.242Z,3.10
2023-01-07T21:59:30.989Z,3.10
2023-01-07T22:01:57.897Z,3.10
2023-01-07T22:04:24.734Z,3.10
2023-01-07T22:06:51.562Z,3.00
2023-01-07T22:09:18.734Z,3.00
2023-01-07T22:11:45.438Z,3.00
2023-01-07T22:14:15.863Z,3.00
2023-01-07T22:16:43.481Z,3.00
2023-01-07T22:19:12.152Z,3.00
2023-01-07T22:21:39.470Z,3.00
2023-01-07T22:24:06.990Z,3.00
2023-01-07T22:26:33.847Z,3.00
2023-01-07T22:29:03.422Z,3.00
2023-01-07T22:31:33.252Z,3.00
2023-01-07T22:34:03.367Z,2.90
2023-01-07T22:36:44.212Z,2.80
2023-01-07T22:39:21.632Z,2.80
2023-01-07T22:41:50.944Z,2.80
2023-01-07T22:44:23.065Z,2.90
2023-01-07T22:46:51.435Z,2.90
2023-01-07T22:49:19.681Z,2.90
2023-01-07T22:51:49.204Z,2.80
2023-01-07T22:54:16.935Z,2.70
2023-01-07T22:56:44.910Z,2.80
2023-01-07T22:59:12.019Z,2.70
2023-01-07T23:01:39.912Z,2.70
2023-01-07T23:04:06.821Z,2.80
2023-01-07T23:06:33.919Z,2.70
2023-01-07T23:09:00.667Z,2.70
2023-01-07T23:11:46.370Z,2.70
2023-01-07T23:14:13.160Z,2.70
2023-01-07T23:16:40.067Z,2.60
2023-01-07T23:19:07.204Z,2.70
2023-01-07T23:21:34.346Z,2.70
2023-01-07T23:24:01.064Z,2.70
2023-01-07T23:26:27.958Z,2.70
2023-01-07T23:28:54.752Z,2.70
2023-01-07T23:31:21.640Z,2.70
2023-01-07T23:33:48.530Z,2.70
2023-01-07T23:36:15.430Z,2.70
2023-01-07T23:38:42.194Z,2.60
2023-01-07T23:41:10.519Z,2.70
2023-01-07T23:43:37.297Z,2.70
2023-01-07T23:46:06.322Z,2.70
2023-01-07T23:48:35.206Z,2.70
2023-01-07T23:51:12.591Z,2.60
2023-01-07T23:53:39.527Z,2.60
2023-01-07T23:56:06.863Z,2.70
2023-01-07T23:58:34.203Z,2.70
